Time;durP1;ratioP1;P1;durP2;ratioP2;P2;SDS_P1;SDS_P2;PMS_P1;PMS_P2;Temp;Humidity;BMP_temperature;BMP_pressure;BME280_temperature;BME280_humidity;BME280_pressure;Samples;Min_cycle;Max_cycle;Signal;HPM_P1;HPM_P2
2021/03/22 00:00:37;;;;;;;8.90;1.83;;;4.40;99.90;;;;;;5070094;28;20028;-80
2021/03/22 00:03:03;;;;;;;7.43;1.40;;;4.40;99.90;;;;;;5048584;28;20393;-80
2021/03/22 00:05:29;;;;;;;12.20;1.42;;;4.40;99.90;;;;;;5075155;28;20024;-80
2021/03/22 00:07:55;;;;;;;9.52;1.30;;;4.40;99.90;;;;;;5075213;28;20028;-80
2021/03/22 00:10:23;;;;;;;13.45;2.67;;;4.40;99.90;;;;;;5059059;28;20017;-80
2021/03/22 00:12:49;;;;;;;15.60;3.05;;;4.40;99.90;;;;;;5073761;28;20020;-80
2021/03/22 00:15:16;;;;;;;17.40;2.97;;;4.40;99.90;;;;;;5071670;28;20400;-80
2021/03/22 00:17:42;;;;;;;14.38;2.38;;;4.40;99.90;;;;;;5075181;28;20051;-80
2021/03/22 00:20:09;;;;;;;9.27;1.77;;;4.40;99.90;;;;;;5074823;28;20020;-80
2021/03/22 00:22:35;;;;;;;9.75;2.20;;;4.40;99.90;;;;;;5074823;28;20066;-80
2021/03/22 00:25:00;;;;;;;11.13;2.10;;;4.30;99.90;;;;;;5073501;28;20020;-80
2021/03/22 00:27:26;;;;;;;14.48;3.30;;;4.30;99.90;;;;;;5072700;28;20116;-80
2021/03/22 00:29:51;;;;;;;13.05;2.47;;;4.20;99.90;;;;;;5073735;28;20454;-80
2021/03/22 00:32:17;;;;;;;12.80;3.17;;;4.20;99.90;;;;;;5073489;28;20035;-80
2021/03/22 00:34:43;;;;;;;14.50;2.75;;;4.20;99.90;;;;;;5074786;28;20430;-80
2021/03/22 00:37:08;;;;;;;12.25;2.38;;;4.20;99.90;;;;;;5073518;28;20384;-80
2021/03/22 00:39:34;;;;;;;17.00;2.50;;;4.20;99.90;;;;;;5074537;28;20048;-80
2021/03/22 00:41:59;;;;;;;8.88;1.95;;;4.20;99.90;;;;;;5073467;28;20016;-80
2021/03/22 00:44:25;;;;;;;13.43;3.33;;;4.20;99.90;;;;;;5073332;28;20036;-80
2021/03/22 00:46:51;;;;;;;14.77;3.20;;;4.20;99.90;;;;;;5074598;28;20069;-80
2021/03/22 00:49:17;;;;;;;19.55;3.20;;;4.20;99.90;;;;;;5073267;28;20108;-80
2021/03/22 00:51:42;;;;;;;15.88;2.90;;;4.20;99.90;;;;;;5071577;28;20043;-80
2021/03/22 00:54:08;;;;;;;19.92;3.28;;;4.10;99.90;;;;;;5074285;28;20020;-80
2021/03/22 00:56:33;;;;;;;14.00;3.63;;;4.10;99.90;;;;;;5072933;28;20013;-80
2021/03/22 00:58:59;;;;;;;18.52;2.50;;;4.10;99.90;;;;;;5074487;28;20012;-80
2021/03/22 01:01:24;;;;;;;16.23;3.38;;;4.10;99.90;;;;;;5074286;28;20017;-80
2021/03/22 01:03:50;;;;;;;15.80;3.55;;;4.20;99.90;;;;;;5074265;28;20506;-80
2021/03/22 01:06:16;;;;;;;13.85;3.95;;;4.20;99.90;;;;;;5072801;28;20009;-80
2021/03/22 01:08:42;;;;;;;21.98;3.90;;;4.20;99.90;;;;;;5072836;28;20444;-80
2021/03/22 01:11:11;;;;;;;8.57;2.92;;;4.20;99.90;;;;;;5072865;28;20482;-80
2021/03/22 01:13:40;;;;;;;10.73;2.67;;;4.20;99.90;;;;;;5085497;28;20055;-80
2021/03/22 01:16:06;;;;;;;7.32;1.98;;;4.20;99.90;;;;;;5072775;28;20017;-80
2021/03/22 01:18:36;;;;;;;11.02;2.00;;;4.20;99.90;;;;;;5072518;28;20488;-80
2021/03/22 01:21:18;;;;;;;11.00;3.00;;;4.20;99.90;;;;;;5073919;28;20025;-80
2021/03/22 01:23:43;;;;;;;13.82;3.20;;;4.30;99.90;;;;;;5070882;28;20116;-80
2021/03/22 01:26:14;;;;;;;14.23;2.97;;;4.20;99.90;;;;;;5072595;28;20051;-80
2021/03/22 01:28:40;;;;;;;16.98;3.28;;;4.20;99.90;;;;;;5057230;28;20021;-80
2021/03/22 01:31:07;;;;;;;13.82;3.13;;;4.20;99.90;;;;;;5086262;28;20016;-80
2021/03/22 01:33:35;;;;;;;13.00;3.47;;;4.20;99.90;;;;;;5072208;28;20476;-80
2021/03/22 01:36:09;;;;;;;21.85;4.00;;;4.10;99.90;;;;;;5072179;28;20508;-80
2021/03/22 01:38:35;;;;;;;22.10;4.55;;;4.10;99.90;;;;;;5087354;28;20469;-80
2021/03/22 01:41:25;;;;;;;28.17;4.82;;;4.00;99.90;;;;;;5073446;28;20028;-80
2021/03/22 01:43:53;;;;;;;15.77;4.28;;;4.00;99.90;;;;;;5088303;28;20112;-80
2021/03/22 01:46:21;;;;;;;16.92;3.80;;;3.90;99.90;;;;;;5072006;28;20447;-80
2021/03/22 01:48:47;;;;;;;14.45;4.25;;;3.90;99.90;;;;;;5072300;28;20021;-80
2021/03/22 01:51:12;;;;;;;19.90;4.28;;;3.90;99.90;;;;;;5071810;28;20127;-80
2021/03/22 01:53:39;;;;;;;15.88;3.70;;;3.80;99.90;;;;;;5073091;28;20012;-80
2021/03/22 01:56:22;;;;;;;17.00;3.55;;;3.80;99.90;;;;;;5073167;28;20016;-80
2021/03/22 01:58:49;;;;;;;16.48;4.93;;;3.80;99.90;;;;;;5087824;28;20056;-80
2021/03/22 02:01:15;;;;;;;11.50;3.30;;;3.70;99.90;;;;;;5071667;28;20017;-80
2021/03/22 02:03:41;;;;;;;13.88;4.47;;;3.60;99.90;;;;;;5073224;28;20020;-80
2021/03/22 02:06:07;;;;;;;11.80;3.67;;;3.60;99.90;;;;;;5073047;28;20047;-81
2021/03/22 02:08:37;;;;;;;20.35;4.35;;;3.50;99.90;;;;;;5071487;28;20037;-80
2021/03/22 02:11:03;;;;;;;18.77;3.83;;;3.40;99.90;;;;;;5071656;28;20488;-79
2021/03/22 02:13:32;;;;;;;8.23;2.33;;;3.40;99.90;;;;;;5071381;28;20142;-80
2021/03/22 02:16:11;;;;;;;9.02;3.15;;;3.40;99.90;;;;;;5086996;28;20017;-80
2021/03/22 02:18:48;;;;;;;12.37;2.90;;;3.50;99.90;;;;;;5085293;28;20031;-80
2021/03/22 02:21:45;;;;;;;7.75;2.70;;;3.40;99.90;;;;;;5071420;28;20361;-79
2021/03/22 02:24:49;;;;;;;11.18;3.17;;;3.40;99.90;;;;;;5070934;28;20066;-80
2021/03/22 02:27:33;;;;;;;11.07;2.80;;;3.30;99.90;;;;;;5071312;28;20035;-80
2021/03/22 02:30:11;;;;;;;10.90;2.78;;;3.20;99.90;;;;;;5054101;28;20027;-80
2021/03/22 02:33:07;;;;;;;10.57;2.47;;;3.20;99.90;;;;;;5068601;28;20016;-80
2021/03/22 02:35:42;;;;;;;6.68;2.38;;;3.20;99.90;;;;;;5085636;28;20082;-80
2021/03/22 02:38:22;;;;;;;8.77;2.40;;;3.20;99.90;;;;;;5055211;28;20435;-80
2021/03/22 02:40:59;;;;;;;6.38;2.28;;;3.30;99.90;;;;;;5054952;28;20017;-80
2021/03/22 02:43:25;;;;;;;6.50;2.30;;;3.30;99.90;;;;;;5070919;28;20021;-80
2021/03/22 02:45:55;;;;;;;6.00;1.60;;;3.30;99.90;;;;;;5071203;28;20484;-80
2021/03/22 02:48:24;;;;;;;;;;;3.20;99.90;;;;;;5086627;28;20009;-80
2021/03/22 02:51:13;;;;;;;4.00;1.55;;;3.20;99.90;;;;;;5072443;28;19905;-80
2021/03/22 02:54:20;;;;;;;4.38;1.90;;;3.10;99.90;;;;;;5069910;28;20499;-80
2021/03/22 02:56:56;;;;;;;7.70;2.47;;;3.10;99.90;;;;;;5053824;28;20033;-80
2021/03/22 02:59:27;;;;;;;5.35;2.67;;;3.00;99.90;;;;;;5070376;28;20407;-80
2021/03/22 03:01:59;;;;;;;4.28;2.30;;;3.00;99.90;;;;;;5070234;28;20411;-79
2021/03/22 03:04:26;;;;;;;6.45;2.20;;;3.00;99.90;;;;;;5070911;28;20483;-80
2021/03/22 03:06:55;;;;;;;6.50;2.47;;;3.00;99.90;;;;;;5070709;28;20511;-80
2021/03/22 03:09:25;;;;;;;7.22;2.45;;;3.00;99.90;;;;;;5070737;28;20499;-80
2021/03/22 03:11:51;;;;;;;5.68;2.03;;;3.00;99.90;;;;;;5070791;28;20035;-79
2021/03/22 03:14:17;;;;;;;7.38;2.95;;;3.00;99.90;;;;;;5086030;28;20045;-80
2021/03/22 03:16:43;;;;;;;9.82;3.42;;;3.00;99.90;;;;;;5067958;28;20025;-80
2021/03/22 03:19:09;;;;;;;15.35;4.70;;;3.10;99.90;;;;;;5070762;28;20020;-80
2021/03/22 03:21:35;;;;;;;12.00;3.45;;;3.20;99.90;;;;;;5071975;28;20048;-80
2021/03/22 03:24:06;;;;;;;8.27;3.00;;;3.30;99.90;;;;;;5079431;28;20035;-80
2021/03/22 03:26:32;;;;;;;6.80;2.90;;;3.40;99.90;;;;;;5070423;28;20115;-80
2021/03/22 03:28:57;;;;;;;14.23;3.45;;;3.40;99.90;;;;;;5071806;28;20123;-79
2021/03/22 03:31:23;;;;;;;6.97;2.88;;;3.40;99.90;;;;;;5070575;28;20020;-80
2021/03/22 03:33:48;;;;;;;14.45;5.25;;;3.50;99.90;;;;;;5070575;28;20119;-80
2021/03/22 03:36:14;;;;;;;7.10;3.08;;;3.50;99.90;;;;;;5071887;28;20020;-80
2021/03/22 03:38:39;;;;;;;7.60;3.17;;;3.50;99.90;;;;;;5074549;28;20024;-80
2021/03/22 03:41:05;;;;;;;23.42;6.53;;;3.50;99.90;;;;;;5075724;28;20020;-80
2021/03/22 03:43:31;;;;;;;16.15;6.30;;;3.40;99.90;;;;;;5075823;28;20020;-80
2021/03/22 03:45:56;;;;;;;14.93;4.53;;;3.40;99.90;;;;;;5074262;28;20024;-80
2021/03/22 03:48:25;;;;;;;13.02;4.68;;;3.40;99.90;;;;;;5075816;28;20020;-80
2021/03/22 03:51:00;;;;;;;8.90;4.05;;;3.50;99.90;;;;;;5074468;28;20484;-80
2021/03/22 03:53:27;;;;;;;7.80;3.42;;;3.50;99.90;;;;;;5074020;28;20074;-80
2021/03/22 03:55:54;;;;;;;8.40;3.13;;;3.50;99.90;;;;;;5073941;28;20032;-80
2021/03/22 03:58:20;;;;;;;8.18;3.03;;;3.60;99.90;;;;;;5075424;28;20494;-80
2021/03/22 04:00:47;;;;;;;10.60;3.72;;;3.70;99.90;;;;;;5074198;28;20033;-80
2021/03/22 04:03:28;;;;;;;8.88;3.20;;;3.70;99.90;;;;;;5074070;28;20040;-80
2021/03/22 04:06:15;;;;;;;10.27;3.08;;;3.80;99.90;;;;;;5073909;28;20062;-80
2021/03/22 04:08:52;;;;;;;15.70;4.47;;;3.90;99.90;;;;;;5071779;28;20025;-80
2021/03/22 04:11:26;;;;;;;12.07;4.78;;;3.90;99.90;;;;;;5072654;28;20357;-80
2021/03/22 04:13:53;;;;;;;11.38;3.83;;;3.90;99.90;;;;;;5074275;28;20076;-80
2021/03/22 04:16:19;;;;;;;12.38;4.40;;;4.00;99.90;;;;;;5071177;28;20036;-80
2021/03/22 04:18:45;;;;;;;10.77;4.22;;;4.00;99.90;;;;;;5075038;28;20020;-80
2021/03/22 04:21:13;;;;;;;11.02;4.13;;;4.00;99.90;;;;;;5073892;28;20521;-80
2021/03/22 04:23:41;;;;;;;13.70;4.03;;;4.00;99.90;;;;;;5071329;28;20021;-80
2021/03/22 04:26:07;;;;;;;9.38;4.28;;;4.10;99.90;;;;;;5088152;28;20024;-80
2021/03/22 04:28:33;;;;;;;8.85;4.43;;;4.10;99.90;;;;;;5073315;28;20491;-80
2021/03/22 04:30:59;;;;;;;13.07;4.63;;;4.20;99.90;;;;;;5088594;28;20104;-80
2021/03/22 04:33:25;;;;;;;17.17;5.97;;;4.20;99.90;;;;;;5074942;28;20438;-80
2021/03/22 04:35:51;;;;;;;23.70;7.65;;;4.20;99.90;;;;;;5070672;28;20028;-80
2021/03/22 04:38:16;;;;;;;16.17;6.47;;;4.20;99.90;;;;;;5074621;28;20091;-80
2021/03/22 04:40:42;;;;;;;20.13;6.13;;;4.10;99.90;;;;;;5073529;28;20020;-80
2021/03/22 04:43:09;;;;;;;15.85;7.43;;;4.20;99.90;;;;;;5056561;28;20045;-80
2021/03/22 04:45:34;;;;;;;21.10;6.50;;;4.20;99.90;;;;;;5074509;28;20127;-80
2021/03/22 04:48:00;;;;;;;18.30;6.95;;;4.20;99.90;;;;;;5072788;28;20543;-80
2021/03/22 04:50:27;;;;;;;21.02;7.43;;;4.30;99.90;;;;;;5073373;28;20057;-80
2021/03/22 04:52:53;;;;;;;20.27;6.82;;;4.30;99.90;;;;;;5073152;28;20127;-80
2021/03/22 04:55:21;;;;;;;21.38;7.35;;;4.30;99.90;;;;;;5074326;28;20027;-80
2021/03/22 04:57:47;;;;;;;22.65;6.75;;;4.40;99.90;;;;;;5072873;28;20052;-80
2021/03/22 05:00:19;;;;;;;21.58;6.53;;;4.40;99.90;;;;;;5074232;28;20025;-80
2021/03/22 05:02:45;;;;;;;22.77;6.97;;;4.50;99.90;;;;;;5073057;28;20388;-80
2021/03/22 05:05:10;;;;;;;23.33;7.63;;;4.50;99.90;;;;;;5074139;28;20028;-80
2021/03/22 05:07:36;;;;;;;22.58;6.72;;;4.50;99.90;;;;;;5072905;28;20032;-80
2021/03/22 05:10:04;;;;;;;21.02;6.57;;;4.50;99.90;;;;;;5072860;28;20027;-80
2021/03/22 05:12:30;;;;;;;20.58;6.20;;;4.60;99.90;;;;;;5082164;28;20052;-80
2021/03/22 05:14:55;;;;;;;11.77;5.22;;;4.60;99.90;;;;;;5073575;28;20504;-80
2021/03/22 05:17:21;;;;;;;18.20;6.55;;;4.60;99.90;;;;;;5088662;28;20476;-80
2021/03/22 05:19:46;;;;;;;16.38;6.35;;;4.70;99.90;;;;;;5072748;28;20108;-80
2021/03/22 05:22:12;;;;;;;13.73;6.43;;;4.60;99.90;;;;;;5072625;28;20031;-80
2021/03/22 05:24:37;;;;;;;11.02;4.82;;;4.70;99.90;;;;;;5072461;28;20051;-80
2021/03/22 05:27:03;;;;;;;16.88;5.82;;;4.70;99.90;;;;;;5072298;28;20024;-80
2021/03/22 05:29:29;;;;;;;14.55;4.63;;;4.70;99.90;;;;;;5087317;28;20021;-80
2021/03/22 05:31:55;;;;;;;13.15;5.40;;;4.70;99.90;;;;;;5072348;28;20027;-80
2021/03/22 05:34:21;;;;;;;19.30;6.55;;;4.70;99.90;;;;;;5072211;28;20078;-80
2021/03/22 05:36:48;;;;;;;14.50;5.63;;;4.70;99.90;;;;;;5072342;28;20035;-80
2021/03/22 05:39:13;;;;;;;15.50;5.47;;;4.70;99.90;;;;;;5072161;28;20025;-80
2021/03/22 05:41:58;;;;;;;12.18;5.28;;;4.70;99.90;;;;;;5072273;28;20051;-80
2021/03/22 05:44:42;;;;;;;16.67;6.00;;;4.80;99.90;;;;;;5068591;28;20012;-80
2021/03/22 05:47:33;;;;;;;13.95;5.90;;;4.70;99.90;;;;;;5088562;28;20025;-80
2021/03/22 05:50:19;;;;;;;13.30;5.57;;;4.80;99.90;;;;;;5070741;28;20024;-80
2021/03/22 05:53:03;;;;;;;14.40;6.00;;;4.80;99.90;;;;;;5070349;28;20396;-80
2021/03/22 05:55:52;;;;;;;10.07;4.57;;;4.70;99.90;;;;;;5072032;28;20024;-80
2021/03/22 05:58:53;;;;;;;12.10;4.32;;;4.80;99.90;;;;;;5070732;28;20016;-83
2021/03/22 06:01:40;;;;;;;11.38;3.92;;;4.90;99.90;;;;;;5070539;28;20020;-80
2021/03/22 06:04:19;;;;;;;8.32;3.70;;;4.90;99.90;;;;;;5071840;28;20024;-80
2021/03/22 06:06:47;;;;;;;14.93;5.03;;;5.00;99.90;;;;;;5070140;28;20488;-80
2021/03/22 06:09:40;;;;;;;17.88;5.93;;;5.00;99.90;;;;;;5085915;28;20055;-80
2021/03/22 06:12:35;;;;;;;15.98;5.50;;;5.00;99.90;;;;;;5070255;28;20155;-80
2021/03/22 06:15:23;;;;;;;17.75;6.10;;;5.10;99.90;;;;;;5069819;28;20442;-80
2021/03/22 06:17:59;;;;;;;19.15;6.30;;;5.00;99.90;;;;;;5073033;28;20039;-80
2021/03/22 06:20:37;;;;;;;21.77;5.97;;;5.00;99.90;;;;;;5071675;28;20411;-81
2021/03/22 06:23:17;;;;;;;22.80;6.43;;;5.10;99.90;;;;;;5070735;28;20020;-79
2021/03/22 06:25:42;;;;;;;12.65;5.35;;;5.10;99.90;;;;;;5070595;28;20017;-77
2021/03/22 06:28:14;;;;;;;17.20;5.78;;;5.10;99.90;;;;;;5071402;28;20020;-81
2021/03/22 06:30:41;;;;;;;13.68;4.60;;;5.10;99.90;;;;;;5071142;28;20028;-80
2021/03/22 06:33:13;;;;;;;14.57;4.18;;;5.20;99.90;;;;;;5072596;28;20048;-80
2021/03/22 06:35:39;;;;;;;14.68;4.50;;;5.20;99.90;;;;;;5082479;28;20480;-81
2021/03/22 06:38:04;;;;;;;14.70;5.68;;;5.30;99.90;;;;;;5072445;28;20095;-80
2021/03/22 06:40:34;;;;;;;15.98;4.63;;;5.40;99.90;;;;;;5071226;28;20380;-80
2021/03/22 06:43:09;;;;;;;;;;;5.40;99.90;;;;;;5055176;28;20104;-80
2021/03/22 06:45:44;;;;;;;14.13;4.80;;;5.40;99.90;;;;;;5072210;28;20275;-79
2021/03/22 06:48:14;;;;;;;19.00;5.43;;;5.30;99.90;;;;;;5072204;28;20021;-80
2021/03/22 06:50:39;;;;;;;16.15;4.80;;;5.30;99.90;;;;;;5082462;28;20024;-80
2021/03/22 06:53:05;;;;;;;18.40;5.15;;;5.40;99.90;;;;;;5071028;28;20016;-80
2021/03/22 06:55:36;;;;;;;18.13;6.63;;;5.40;99.90;;;;;;5072183;28;20028;-80
2021/03/22 06:58:03;;;;;;;13.13;5.63;;;5.50;99.90;;;;;;5068725;28;20013;-81
2021/03/22 07:00:32;;;;;;;12.85;4.70;;;5.60;99.90;;;;;;5072169;28;20135;-81
2021/03/22 07:03:22;;;;;;;13.77;4.45;;;5.70;99.90;;;;;;5070798;28;20019;-80
2021/03/22 07:05:47;;;;;;;17.45;4.80;;;5.80;99.90;;;;;;5087423;28;20066;-80
2021/03/22 07:08:20;;;;;;;14.43;4.40;;;5.80;99.90;;;;;;5070399;28;20045;-80
2021/03/22 07:10:52;;;;;;;20.77;5.68;;;5.90;99.90;;;;;;5076075;28;20089;-79
2021/03/22 07:13:26;;;;;;;17.60;5.53;;;6.00;99.90;;;;;;5069412;28;20017;-79
2021/03/22 07:16:17;;;;;;;11.32;4.72;;;6.00;99.90;;;;;;5082235;28;20078;-80
2021/03/22 07:19:03;;;;;;;12.45;4.82;;;6.10;99.90;;;;;;5057733;28;20384;-80
2021/03/22 07:21:28;;;;;;;12.20;4.40;;;6.10;99.90;;;;;;5066739;28;20028;-81
2021/03/22 07:24:11;;;;;;;14.27;4.70;;;6.20;99.90;;;;;;5062646;28;20361;-78
2021/03/22 07:26:53;;;;;;;11.30;4.03;;;6.20;99.90;;;;;;5064362;28;20104;-78
2021/03/22 07:29:32;;;;;;;11.20;3.88;;;6.30;99.90;;;;;;5071523;28;20484;-79
2021/03/22 07:32:32;;;;;;;15.37;4.73;;;6.30;99.90;;;;;;5077738;28;20025;-79
2021/03/22 07:35:49;;;;;;;13.05;4.25;;;6.40;99.90;;;;;;5067560;28;20381;-78
2021/03/22 07:38:37;;;;;;;11.55;4.00;;;6.50;99.90;;;;;;5041713;28;20031;-78
2021/03/22 07:41:36;;;;;;;13.57;5.05;;;6.60;99.90;;;;;;5087473;28;20029;-79
2021/03/22 07:44:29;;;;;;;13.57;3.92;;;6.70;99.90;;;;;;5088308;28;20024;-79
2021/03/22 07:47:09;;;;;;;13.15;3.22;;;6.70;99.90;;;;;;5072397;28;20093;-79
2021/03/22 07:49:41;;;;;;;11.52;3.30;;;6.80;99.90;;;;;;5071570;28;20025;-79
2021/03/22 07:52:15;;;;;;;10.63;3.00;;;6.80;99.90;;;;;;5070675;28;20017;-79
2021/03/22 07:54:51;;;;;;;15.38;4.35;;;6.90;99.90;;;;;;5071102;28;20031;-79
2021/03/22 07:57:53;;;;;;;10.38;3.83;;;7.00;99.90;;;;;;5070776;28;20067;-79
2021/03/22 08:00:43;;;;;;;9.98;3.08;;;7.10;99.90;;;;;;5087935;28;20017;-79
2021/03/22 08:03:23;;;;;;;15.77;3.90;;;7.20;99.90;;;;;;5072343;28;20043;-79
2021/03/22 08:06:07;;;;;;;16.73;4.65;;;7.20;99.90;;;;;;5072282;28;20033;-79
2021/03/22 08:08:54;;;;;;;8.80;2.88;;;7.20;99.90;;;;;;5071745;28;20079;-79
2021/03/22 08:11:28;;;;;;;18.73;3.95;;;7.30;99.90;;;;;;5086193;28;20024;-79
2021/03/22 08:14:25;;;;;;;17.10;4.25;;;7.30;99.90;;;;;;5069942;28;20028;-79
2021/03/22 08:17:02;;;;;;;13.35;2.95;;;7.40;99.90;;;;;;5071088;28;20024;-79
2021/03/22 08:19:31;;;;;;;11.63;2.90;;;7.40;99.90;;;;;;5071744;28;20023;-79
2021/03/22 08:22:11;;;;;;;8.75;2.17;;;7.40;99.90;;;;;;5071439;28;20043;-79
2021/03/22 08:24:47;;;;;;;;;;;7.50;99.90;;;;;;5075107;28;20024;-79
2021/03/22 08:27:21;;;;;;;11.13;3.00;;;7.40;99.90;;;;;;5074444;28;19947;-79
2021/03/22 08:30:19;;;;;;;8.98;2.38;;;7.50;99.90;;;;;;5074500;28;20075;-79
2021/03/22 08:32:56;;;;;;;7.13;2.20;;;7.60;99.90;;;;;;5046528;28;20036;-79
2021/03/22 08:35:57;;;;;;;6.65;2.65;;;7.60;99.90;;;;;;5074052;28;20032;-79
2021/03/22 08:38:45;;;;;;;8.07;2.08;;;7.60;99.90;;;;;;5036926;28;20033;-79
2021/03/22 08:41:26;;;;;;;6.28;2.13;;;7.60;99.90;;;;;;5073804;28;20024;-79
2021/03/22 08:44:15;;;;;;;10.95;2.10;;;7.60;99.90;;;;;;5074419;28;20020;-79
2021/03/22 08:46:44;;;;;;;6.05;2.08;;;7.70;99.90;;;;;;5075241;28;20024;-79
2021/03/22 08:49:19;;;;;;;7.47;2.10;;;7.90;99.90;;;;;;5075171;28;20103;-79
2021/03/22 08:51:46;;;;;;;6.30;2.15;;;8.10;99.90;;;;;;5075346;28;20250;-79
2021/03/22 08:54:41;;;;;;;12.80;3.25;;;8.10;99.90;;;;;;5073941;28;20063;-79
2021/03/22 08:57:20;;;;;;;8.80;2.60;;;8.10;99.90;;;;;;5061599;28;20036;-79
2021/03/22 08:59:46;;;;;;;6.87;2.17;;;8.00;99.90;;;;;;5073628;28;20025;-79
2021/03/22 09:02:23;;;;;;;6.82;2.03;;;7.80;99.90;;;;;;5073707;28;20027;-80
2021/03/22 09:04:49;;;;;;;5.78;2.20;;;7.80;99.90;;;;;;5073767;28;20028;-79
2021/03/22 09:07:15;;;;;;;6.97;1.88;;;7.70;99.90;;;;;;5074228;28;20118;-80
2021/03/22 09:09:43;;;;;;;8.13;2.15;;;7.70;99.90;;;;;;5073179;28;20060;-79
2021/03/22 09:12:45;;;;;;;4.53;2.08;;;7.80;99.90;;;;;;5073257;28;20439;-79
2021/03/22 09:15:31;;;;;;;7.85;2.08;;;8.00;99.90;;;;;;5064418;28;20532;-79
2021/03/22 09:18:02;;;;;;;4.40;1.17;;;8.20;99.90;;;;;;5073336;28;20024;-79
2021/03/22 09:20:53;;;;;;;4.82;1.50;;;8.40;99.90;;;;;;5087660;28;20905;-79
2021/03/22 09:23:30;;;;;;;3.17;1.35;;;9.20;99.90;;;;;;5088891;28;20166;-79
2021/03/22 09:26:04;;;;;;;2.05;0.90;;;10.90;99.90;;;;;;5074304;28;20028;-79
2021/03/22 09:28:29;;;;;;;2.05;1.00;;;12.80;98.20;;;;;;5072578;28;20044;-80
2021/03/22 09:31:14;;;;;;;2.70;0.90;;;14.20;94.50;;;;;;5074586;28;20031;-79
2021/03/22 09:33:57;;;;;;;3.35;1.05;;;14.40;91.60;;;;;;5073205;28;20547;-79
2021/03/22 09:36:35;;;;;;;4.60;1.05;;;13.40;90.70;;;;;;5073010;28;20028;-79
2021/03/22 09:39:24;;;;;;;2.63;0.85;;;12.40;90.30;;;;;;5073150;28;20477;-80
2021/03/22 09:42:10;;;;;;;2.73;0.60;;;11.60;87.50;;;;;;5072848;28;20070;-80
2021/03/22 09:44:58;;;;;;;2.25;0.73;;;10.90;89.30;;;;;;5063285;28;20046;-79
2021/03/22 09:47:35;;;;;;;3.40;0.70;;;10.80;90.60;;;;;;5072621;28;20036;-79
2021/03/22 09:50:05;;;;;;;2.00;0.52;;;11.20;90.70;;;;;;5072028;28;20108;-79
2021/03/22 09:52:40;;;;;;;3.38;0.77;;;11.10;91.00;;;;;;5072294;28;20029;-79
2021/03/22 09:55:27;;;;;;;3.63;0.80;;;11.10;90.90;;;;;;5073638;28;20013;-79
2021/03/22 09:57:58;;;;;;;2.58;0.50;;;11.10;91.30;;;;;;5088355;28;20033;-80
2021/03/22 10:00:25;;;;;;;2.25;0.80;;;11.20;91.30;;;;;;5070356;28;20027;-82
2021/03/22 10:02:54;;;;;;;3.15;0.70;;;11.00;91.20;;;;;;5062119;28;20028;-80
2021/03/22 10:05:23;;;;;;;2.35;0.80;;;10.70;91.60;;;;;;5069351;28;20036;-81
2021/03/22 10:08:11;;;;;;;3.28;0.95;;;10.30;91.70;;;;;;5071664;28;20048;-81
2021/03/22 10:10:49;;;;;;;3.42;0.90;;;10.00;91.90;;;;;;5076534;28;20028;-82
2021/03/22 10:13:37;;;;;;;3.38;0.80;;;9.70;92.60;;;;;;5073489;28;20020;-82
2021/03/22 10:16:26;;;;;;;1.73;0.70;;;9.60;92.80;;;;;;5073398;28;20055;-81
2021/03/22 10:18:58;;;;;;;3.17;0.68;;;9.40;93.30;;;;;;5071895;28;20020;-82
2021/03/22 10:21:43;;;;;;;3.28;0.60;;;9.30;93.60;;;;;;5071910;28;20132;-81
2021/03/22 10:24:35;;;;;;;1.90;0.60;;;9.30;93.80;;;;;;5067502;28;20016;-81
2021/03/22 10:27:02;;;;;;;1.52;0.40;;;9.40;93.90;;;;;;5071692;28;20516;-81
2021/03/22 10:29:34;;;;;;;3.45;0.73;;;9.40;94.20;;;;;;5073284;28;20024;-81
2021/03/22 10:32:17;;;;;;;5.50;0.70;;;9.50;93.90;;;;;;5069688;28;20025;-81
2021/03/22 10:34:55;;;;;;;1.45;0.70;;;9.60;93.50;;;;;;5081687;28;20033;-81
2021/03/22 10:37:32;;;;;;;2.80;1.38;;;9.80;93.50;;;;;;5070711;28;20487;-80
2021/03/22 10:40:01;;;;;;;2.45;0.70;;;10.20;92.90;;;;;;5069297;28;20078;-81
2021/03/22 10:42:27;;;;;;;1.35;0.47;;;10.90;92.90;;;;;;5072816;28;20017;-81
2021/03/22 10:44:56;;;;;;;2.22;0.40;;;11.40;90.00;;;;;;5071061;28;20040;-81
2021/03/22 10:47:28;;;;;;;0.95;0.22;;;11.40;84.90;;;;;;5069570;28;20028;-83
2021/03/22 10:50:19;;;;;;;3.03;0.50;;;13.50;87.10;;;;;;5070623;28;20476;-80
2021/03/22 10:52:45;;;;;;;0.85;0.20;;;16.30;75.20;;;;;;5072792;28;20056;-80
2021/03/22 10:55:26;;;;;;;1.45;0.38;;;17.80;61.50;;;;;;5088392;28;20083;-80
2021/03/22 10:57:54;;;;;;;1.08;0.20;;;17.40;59.50;;;;;;5078984;28;20107;-80
2021/03/22 11:00:35;;;;;;;0.30;0.30;;;17.10;61.80;;;;;;5072510;28;20354;-80
2021/03/22 11:03:04;;;;;;;1.83;0.40;;;17.50;62.50;;;;;;5046533;28;20036;-79
2021/03/22 11:05:42;;;;;;;1.15;0.40;;;16.70;59.50;;;;;;5082003;28;20039;-80
2021/03/22 11:08:37;;;;;;;1.88;0.40;;;15.70;62.00;;;;;;5067739;28;20035;-80
2021/03/22 11:11:06;;;;;;;0.75;0.30;;;14.50;60.50;;;;;;5069222;28;20086;-79
2021/03/22 11:13:36;;;;;;;1.42;0.38;;;13.10;61.30;;;;;;5068295;28;20028;-79
2021/03/22 11:16:05;;;;;;;0.50;0.28;;;12.10;63.70;;;;;;5067915;28;20040;-82
2021/03/22 11:18:31;;;;;;;0.40;0.20;;;11.70;67.10;;;;;;5068347;28;20017;-82
2021/03/22 11:20:58;;;;;;;2.45;0.40;;;11.50;69.10;;;;;;5070829;28;20472;-80
2021/03/22 11:23:30;;;;;;;2.83;0.40;;;11.30;69.80;;;;;;5070641;28;20070;-79
2021/03/22 11:25:58;;;;;;;0.57;0.30;;;11.20;69.80;;;;;;5070918;28;20034;-81
2021/03/22 11:28:31;;;;;;;2.08;0.45;;;11.00;70.80;;;;;;5072401;28;20033;-80
2021/03/22 11:31:22;;;;;;;1.00;0.40;;;10.70;70.20;;;;;;5072413;28;20028;-80
2021/03/22 11:34:06;;;;;;;1.92;0.50;;;10.50;71.40;;;;;;5057087;28;20681;-79
2021/03/22 11:36:34;;;;;;;1.08;0.30;;;10.40;72.30;;;;;;5044135;28;20040;-79
2021/03/22 11:39:18;;;;;;;0.98;0.30;;;10.20;72.30;;;;;;5057824;28;20081;-81
2021/03/22 11:41:52;;;;;;;0.90;0.40;;;10.30;73.60;;;;;;5086651;28;20040;-80
2021/03/22 11:44:36;;;;;;;0.93;0.40;;;10.40;74.20;;;;;;5068138;28;20024;-81
2021/03/22 11:47:29;;;;;;;1.30;0.30;;;10.50;74.40;;;;;;5070394;28;20551;-81
2021/03/22 11:49:56;;;;;;;1.55;0.55;;;10.60;74.50;;;;;;5070710;28;20147;-81
2021/03/22 11:52:31;;;;;;;0.88;0.40;;;10.60;75.00;;;;;;5069647;28;20021;-81
2021/03/22 11:55:28;;;;;;;2.88;0.60;;;10.60;74.90;;;;;;5069912;28;20016;-81
2021/03/22 11:57:54;;;;;;;1.17;0.40;;;10.70;75.00;;;;;;5072210;28;20506;-81
2021/03/22 12:00:26;;;;;;;1.30;0.60;;;10.70;75.40;;;;;;5075313;28;20021;-81
2021/03/22 12:03:06;;;;;;;1.52;0.60;;;10.60;74.80;;;;;;5082663;28;20029;-83
2021/03/22 12:05:38;;;;;;;1.35;0.40;;;10.40;74.30;;;;;;5074172;28;20021;-82
2021/03/22 12:08:29;;;;;;;1.42;0.40;;;10.20;73.10;;;;;;5072093;28;20395;-80
2021/03/22 12:10:54;;;;;;;0.57;0.30;;;10.20;74.10;;;;;;5090739;28;20070;-81
2021/03/22 12:13:20;;;;;;;3.83;0.40;;;10.20;74.90;;;;;;5074241;28;20013;-81
2021/03/22 12:15:46;;;;;;;1.17;0.38;;;10.30;75.10;;;;;;5073909;28;20085;-81
2021/03/22 12:18:22;;;;;;;0.73;0.30;;;10.40;75.10;;;;;;5074283;28;20020;-81
2021/03/22 12:20:48;;;;;;;1.38;0.40;;;10.60;74.70;;;;;;5072771;28;20020;-81
2021/03/22 12:23:14;;;;;;;2.05;0.40;;;10.60;74.90;;;;;;5073946;28;20103;-81
2021/03/22 12:25:39;;;;;;;2.42;0.30;;;10.60;73.50;;;;;;5075320;28;20383;-81
2021/03/22 12:28:05;;;;;;;1.67;0.35;;;10.70;73.90;;;;;;5075470;28;20498;-81
2021/03/22 12:30:31;;;;;;;2.33;0.50;;;10.70;72.90;;;;;;5074124;28;20038;-81
2021/03/22 12:32:57;;;;;;;1.65;0.38;;;10.70;72.90;;;;;;5075825;28;20020;-82
2021/03/22 12:35:28;;;;;;;1.55;0.40;;;10.60;73.30;;;;;;5075516;28;20121;-81
2021/03/22 12:37:53;;;;;;;2.80;0.40;;;10.60;73.60;;;;;;5073629;28;20492;-81
2021/03/22 12:40:19;;;;;;;0.80;0.30;;;10.70;74.00;;;;;;5073947;28;20112;-81
2021/03/22 12:42:47;;;;;;;2.55;0.57;;;10.70;73.20;;;;;;5075594;28;20027;-81
2021/03/22 12:45:22;;;;;;;1.95;0.30;;;10.80;71.50;;;;;;5090921;28;20455;-81
2021/03/22 12:47:50;;;;;;;0.95;0.50;;;10.80;71.90;;;;;;5075628;28;20020;-81
2021/03/22 12:50:38;;;;;;;2.30;0.40;;;10.80;72.30;;;;;;5090940;28;20025;-81
2021/03/22 12:53:05;;;;;;;3.58;0.82;;;10.80;72.70;;;;;;5090613;28;20403;-81
2021/03/22 12:55:32;;;;;;;1.45;0.40;;;10.80;71.30;;;;;;5074829;28;20051;-81
2021/03/22 12:58:00;;;;;;;1.33;0.70;;;10.80;71.20;;;;;;5072700;28;20115;-81
2021/03/22 13:00:28;;;;;;;2.53;0.52;;;10.80;71.50;;;;;;5072629;28;20531;-81
2021/03/22 13:02:55;;;;;;;3.22;0.57;;;10.90;71.20;;;;;;5071646;28;20025;-82
2021/03/22 13:05:29;;;;;;;1.63;0.40;;;10.90;70.90;;;;;;5056482;28;20436;-81
2021/03/22 13:07:56;;;;;;;3.25;0.60;;;11.00;71.60;;;;;;5072386;28;20032;-81
2021/03/22 13:10:26;;;;;;;1.90;0.60;;;11.00;70.30;;;;;;5072564;28;20020;-81
2021/03/22 13:12:52;;;;;;;2.17;0.55;;;10.70;69.60;;;;;;5072694;28;20032;-81
2021/03/22 13:15:40;;;;;;;4.20;0.57;;;10.60;71.60;;;;;;5073401;28;20049;-81
2021/03/22 13:18:14;;;;;;;1.10;0.45;;;10.60;72.10;;;;;;5072790;28;20107;-81
2021/03/22 13:20:40;;;;;;;2.88;0.50;;;10.60;72.50;;;;;;5072065;28;20100;-80
2021/03/22 13:23:08;;;;;;;0.70;0.35;;;10.50;71.60;;;;;;5073465;28;20503;-81